sensor_id;sensor_type;location;lat;lon;timestamp;P1;durP1;ratioP1;P2;durP2;ratioP2
33421;SDS011;19763;55.798;37.782;2023-01-20T00:02:06;63.47;;;37.72;;
33421;SDS011;19763;55.798;37.782;2023-01-20T00:04:32;56.58;;;32.75;;
33421;SDS011;19763;55.798;37.782;2023-01-20T00:06:57;51.30;;;31.20;;
33421;SDS011;19763;55.798;37.782;2023-01-20T00:09:23;55.60;;;34.50;;
33421;SDS011;19763;55.798;37.782;2023-01-20T00:11:48;53.47;;;34.10;;
33421;SDS011;19763;55.798;37.782;2023-01-20T00:14:14;57.13;;;34.88;;
33421;SDS011;19763;55.798;37.782;2023-01-20T00:16:40;52.53;;;33.85;;
33421;SDS011;19763;55.798;37.782;2023-01-20T00:19:05;58.33;;;34.42;;
33421;SDS011;19763;55.798;37.782;2023-01-20T00:21:31;58.28;;;35.65;;
33421;SDS011;19763;55.798;37.782;2023-01-20T00:23:59;50.92;;;33.85;;
33421;SDS011;19763;55.798;37.782;2023-01-20T00:26:25;52.80;;;32.75;;
33421;SDS011;19763;55.798;37.782;2023-01-20T00:28:53;57.75;;;34.03;;
33421;SDS011;19763;55.798;37.782;2023-01-20T00:31:21;55.63;;;32.92;;
33421;SDS011;19763;55.798;37.782;2023-01-20T00:33:49;56.25;;;32.90;;
33421;SDS011;19763;55.798;37.782;2023-01-20T00:36:17;56.75;;;34.38;;
33421;SDS011;19763;55.798;37.782;2023-01-20T00:38:43;53.15;;;32.97;;
33421;SDS011;19763;55.798;37.782;2023-01-20T00:41:09;54.75;;;34.25;;
33421;SDS011;19763;55.798;37.782;2023-01-20T00:43:35;53.78;;;33.70;;
33421;SDS011;19763;55.798;37.782;2023-01-20T00:46:01;59.45;;;33.80;;
33421;SDS011;19763;55.798;37.782;2023-01-20T00:48:28;55.50;;;34.15;;
33421;SDS011;19763;55.798;37.782;2023-01-20T00:50:54;52.45;;;31.85;;
33421;SDS011;19763;55.798;37.782;2023-01-20T00:53:19;54.20;;;30.98;;
33421;SDS011;19763;55.798;37.782;2023-01-20T00:55:45;52.92;;;33.00;;
33421;SDS011;19763;55.798;37.782;2023-01-20T00:58:10;49.17;;;30.85;;
33421;SDS011;19763;55.798;37.782;2023-01-20T01:00:36;53.17;;;32.25;;
33421;SDS011;19763;55.798;37.782;2023-01-20T01:03:02;51.13;;;30.55;;
33421;SDS011;19763;55.798;37.782;2023-01-20T01:05:27;46.60;;;30.38;;
33421;SDS011;19763;55.798;37.782;2023-01-20T01:07:53;51.85;;;31.27;;
33421;SDS011;19763;55.798;37.782;2023-01-20T01:10:18;57.38;;;33.95;;
33421;SDS011;19763;55.798;37.782;2023-01-20T01:12:44;49.72;;;30.65;;
33421;SDS011;19763;55.798;37.782;2023-01-20T01:15:10;50.40;;;32.45;;
33421;SDS011;19763;55.798;37.782;2023-01-20T01:17:36;48.72;;;31.40;;
33421;SDS011;19763;55.798;37.782;2023-01-20T01:20:02;53.08;;;31.20;;
33421;SDS011;19763;55.798;37.782;2023-01-20T01:22:29;49.20;;;29.50;;
33421;SDS011;19763;55.798;37.782;2023-01-20T01:24:56;47.90;;;31.55;;
33421;SDS011;19763;55.798;37.782;2023-01-20T01:27:22;49.70;;;30.92;;
33421;SDS011;19763;55.798;37.782;2023-01-20T01:29:47;53.67;;;31.90;;
33421;SDS011;19763;55.798;37.782;2023-01-20T01:32:13;48.45;;;31.35;;
33421;SDS011;19763;55.798;37.782;2023-01-20T01:34:39;46.83;;;30.75;;
33421;SDS011;19763;55.798;37.782;2023-01-20T01:37:05;51.83;;;30.95;;
33421;SDS011;19763;55.798;37.782;2023-01-20T01:39:30;46.08;;;29.63;;
33421;SDS011;19763;55.798;37.782;2023-01-20T01:41:56;51.25;;;28.10;;
33421;SDS011;19763;55.798;37.782;2023-01-20T01:44:23;50.85;;;30.73;;
33421;SDS011;19763;55.798;37.782;2023-01-20T01:46:51;46.88;;;29.98;;
33421;SDS011;19763;55.798;37.782;2023-01-20T01:49:21;51.22;;;30.58;;
33421;SDS011;19763;55.798;37.782;2023-01-20T01:52:00;45.65;;;29.45;;
33421;SDS011;19763;55.798;37.782;2023-01-20T01:54:29;48.75;;;29.25;;
33421;SDS011;19763;55.798;37.782;2023-01-20T01:57:15;47.05;;;31.13;;
33421;SDS011;19763;55.798;37.782;2023-01-20T01:59:41;47.55;;;29.52;;
33421;SDS011;19763;55.798;37.782;2023-01-20T02:02:07;49.53;;;29.90;;
33421;SDS011;19763;55.798;37.782;2023-01-20T02:04:33;49.53;;;30.40;;
33421;SDS011;19763;55.798;37.782;2023-01-20T02:07:03;45.55;;;29.40;;
33421;SDS011;19763;55.798;37.782;2023-01-20T02:09:34;48.63;;;29.05;;
33421;SDS011;19763;55.798;37.782;2023-01-20T02:12:02;50.83;;;30.40;;
33421;SDS011;19763;55.798;37.782;2023-01-20T02:14:32;44.00;;;28.05;;
33421;SDS011;19763;55.798;37.782;2023-01-20T02:17:04;44.53;;;29.10;;
33421;SDS011;19763;55.798;37.782;2023-01-20T02:28:08;45.83;;;25.50;;
33421;SDS011;19763;55.798;37.782;2023-01-20T02:33:05;44.45;;;27.85;;
33421;SDS011;19763;55.798;37.782;2023-01-20T02:35:45;45.72;;;27.60;;
33421;SDS011;19763;55.798;37.782;2023-01-20T02:43:49;46.47;;;28.40;;
33421;SDS011;19763;55.798;37.782;2023-01-20T02:46:45;41.63;;;27.10;;
33421;SDS011;19763;55.798;37.782;2023-01-20T02:51:55;48.75;;;28.65;;
33421;SDS011;19763;55.798;37.782;2023-01-20T02:54:37;49.35;;;28.98;;
33421;SDS011;19763;55.798;37.782;2023-01-20T02:57:07;45.75;;;27.75;;
33421;SDS011;19763;55.798;37.782;2023-01-20T02:59:36;54.35;;;30.05;;
33421;SDS011;19763;55.798;37.782;2023-01-20T03:02:07;47.28;;;28.00;;
33421;SDS011;19763;55.798;37.782;2023-01-20T03:07:19;44.30;;;26.35;;
33421;SDS011;19763;55.798;37.782;2023-01-20T03:09:50;53.85;;;29.23;;
33421;SDS011;19763;55.798;37.782;2023-01-20T03:12:19;42.75;;;26.45;;
33421;SDS011;19763;55.798;37.782;2023-01-20T03:14:50;40.95;;;24.73;;
33421;SDS011;19763;55.798;37.782;2023-01-20T03:17:20;45.53;;;26.92;;
33421;SDS011;19763;55.798;37.782;2023-01-20T03:19:46;40.53;;;26.05;;
33421;SDS011;19763;55.798;37.782;2023-01-20T03:22:12;44.92;;;26.70;;
33421;SDS011;19763;55.798;37.782;2023-01-20T03:24:38;41.67;;;26.92;;
33421;SDS011;19763;55.798;37.782;2023-01-20T03:27:05;41.25;;;25.02;;
33421;SDS011;19763;55.798;37.782;2023-01-20T03:29:31;46.42;;;27.95;;
33421;SDS011;19763;55.798;37.782;2023-01-20T03:31:58;42.67;;;25.17;;
33421;SDS011;19763;55.798;37.782;2023-01-20T03:34:27;45.67;;;25.88;;
33421;SDS011;19763;55.798;37.782;2023-01-20T03:36:55;43.72;;;25.17;;
33421;SDS011;19763;55.798;37.782;2023-01-20T03:39:22;42.05;;;24.98;;
33421;SDS011;19763;55.798;37.782;2023-01-20T03:41:51;41.65;;;25.45;;
33421;SDS011;19763;55.798;37.782;2023-01-20T03:50:07;43.40;;;25.75;;
33421;SDS011;19763;55.798;37.782;2023-01-20T03:57:59;45.63;;;25.42;;
33421;SDS011;19763;55.798;37.782;2023-01-20T04:00:29;43.00;;;25.63;;
33421;SDS011;19763;55.798;37.782;2023-01-20T04:02:57;40.95;;;23.92;;
33421;SDS011;19763;55.798;37.782;2023-01-20T04:05:27;45.63;;;25.27;;
33421;SDS011;19763;55.798;37.782;2023-01-20T04:07:55;44.17;;;23.60;;
33421;SDS011;19763;55.798;37.782;2023-01-20T04:10:24;42.05;;;25.27;;
33421;SDS011;19763;55.798;37.782;2023-01-20T04:12:53;40.75;;;25.30;;
33421;SDS011;19763;55.798;37.782;2023-01-20T04:15:19;40.35;;;23.98;;
33421;SDS011;19763;55.798;37.782;2023-01-20T04:17:46;42.53;;;24.05;;
33421;SDS011;19763;55.798;37.782;2023-01-20T04:20:12;43.50;;;23.80;;
33421;SDS011;19763;55.798;37.782;2023-01-20T04:25:21;37.83;;;23.15;;
33421;SDS011;19763;55.798;37.782;2023-01-20T04:27:50;40.65;;;23.35;;
33421;SDS011;19763;55.798;37.782;2023-01-20T04:30:15;41.58;;;23.52;;
33421;SDS011;19763;55.798;37.782;2023-01-20T04:32:41;38.33;;;23.70;;
33421;SDS011;19763;55.798;37.782;2023-01-20T04:35:08;42.53;;;23.63;;
33421;SDS011;19763;55.798;37.782;2023-01-20T04:37:37;39.13;;;24.10;;
33421;SDS011;19763;55.798;37.782;2023-01-20T04:40:03;38.75;;;23.67;;
33421;SDS011;19763;55.798;37.782;2023-01-20T04:42:29;45.28;;;24.67;;
33421;SDS011;19763;55.798;37.782;2023-01-20T04:44:55;42.08;;;22.38;;
33421;SDS011;19763;55.798;37.782;2023-01-20T04:47:20;41.97;;;24.52;;
33421;SDS011;19763;55.798;37.782;2023-01-20T04:49:46;41.03;;;24.88;;
33421;SDS011;19763;55.798;37.782;2023-01-20T04:52:11;43.58;;;25.73;;
33421;SDS011;19763;55.798;37.782;2023-01-20T04:54:37;39.95;;;24.55;;
33421;SDS011;19763;55.798;37.782;2023-01-20T04:57:02;37.30;;;23.92;;
33421;SDS011;19763;55.798;37.782;2023-01-20T04:59:28;39.30;;;23.45;;
33421;SDS011;19763;55.798;37.782;2023-01-20T05:01:53;44.72;;;25.30;;
33421;SDS011;19763;55.798;37.782;2023-01-20T05:04:19;41.83;;;24.55;;
33421;SDS011;19763;55.798;37.782;2023-01-20T05:06:45;44.72;;;24.95;;
33421;SDS011;19763;55.798;37.782;2023-01-20T05:09:11;41.25;;;23.05;;
33421;SDS011;19763;55.798;37.782;2023-01-20T05:11:39;39.03;;;23.98;;
33421;SDS011;19763;55.798;37.782;2023-01-20T05:14:04;40.15;;;23.35;;
33421;SDS011;19763;55.798;37.782;2023-01-20T05:16:30;41.58;;;24.30;;
33421;SDS011;19763;55.798;37.782;2023-01-20T05:18:56;45.88;;;25.98;;
33421;SDS011;19763;55.798;37.782;2023-01-20T05:21:22;45.05;;;23.30;;
33421;SDS011;19763;55.798;37.782;2023-01-20T05:23:47;42.42;;;24.15;;
33421;SDS011;19763;55.798;37.782;2023-01-20T05:26:13;41.45;;;24.23;;
33421;SDS011;19763;55.798;37.782;2023-01-20T05:28:39;42.70;;;24.40;;
33421;SDS011;19763;55.798;37.782;2023-01-20T05:31:06;41.90;;;24.45;;
33421;SDS011;19763;55.798;37.782;2023-01-20T05:33:31;42.38;;;24.67;;
33421;SDS011;19763;55.798;37.782;2023-01-20T05:35:57;42.60;;;24.05;;
33421;SDS011;19763;55.798;37.782;2023-01-20T05:38:22;39.13;;;23.90;;
33421;SDS011;19763;55.798;37.782;2023-01-20T05:40:48;38.55;;;22.92;;
33421;SDS011;19763;55.798;37.782;2023-01-20T05:43:14;45.42;;;24.48;;
33421;SDS011;19763;55.798;37.782;2023-01-20T05:45:39;38.25;;;24.02;;
33421;SDS011;19763;55.798;37.782;2023-01-20T05:48:06;38.65;;;23.77;;
33421;SDS011;19763;55.798;37.782;2023-01-20T05:50:32;48.70;;;25.15;;
33421;SDS011;19763;55.798;37.782;2023-01-20T05:52:58;39.88;;;22.70;;
33421;SDS011;19763;55.798;37.782;2023-01-20T05:55:24;40.92;;;24.00;;
33421;SDS011;19763;55.798;37.782;2023-01-20T05:57:50;43.03;;;24.20;;
33421;SDS011;19763;55.798;37.782;2023-01-20T06:00:15;36.35;;;22.58;;
33421;SDS011;19763;55.798;37.782;2023-01-20T06:02:43;40.47;;;23.15;;
33421;SDS011;19763;55.798;37.782;2023-01-20T06:05:08;39.92;;;23.90;;
33421;SDS011;19763;55.798;37.782;2023-01-20T06:07:34;43.20;;;23.52;;
33421;SDS011;19763;55.798;37.782;2023-01-20T06:10:00;43.88;;;23.50;;
33421;SDS011;19763;55.798;37.782;2023-01-20T06:12:27;39.78;;;23.05;;
33421;SDS011;19763;55.798;37.782;2023-01-20T06:14:53;40.10;;;25.05;;
33421;SDS011;19763;55.798;37.782;2023-01-20T06:17:19;45.17;;;24.38;;
33421;SDS011;19763;55.798;37.782;2023-01-20T06:19:44;43.40;;;23.35;;
33421;SDS011;19763;55.798;37.782;2023-01-20T06:22:11;38.13;;;23.98;;
33421;SDS011;19763;55.798;37.782;2023-01-20T06:24:39;41.63;;;23.42;;
33421;SDS011;19763;55.798;37.782;2023-01-20T06:27:05;43.20;;;23.88;;
33421;SDS011;19763;55.798;37.782;2023-01-20T06:29:30;40.97;;;24.40;;
33421;SDS011;19763;55.798;37.782;2023-01-20T06:31:56;39.92;;;23.58;;
33421;SDS011;19763;55.798;37.782;2023-01-20T06:34:21;40.05;;;24.10;;
33421;SDS011;19763;55.798;37.782;2023-01-20T06:36:47;41.58;;;24.27;;
33421;SDS011;19763;55.798;37.782;2023-01-20T06:39:13;41.85;;;24.10;;
33421;SDS011;19763;55.798;37.782;2023-01-20T06:41:38;40.78;;;23.50;;
33421;SDS011;19763;55.798;37.782;2023-01-20T06:44:04;41.85;;;24.63;;
33421;SDS011;19763;55.798;37.782;2023-01-20T06:46:29;43.22;;;24.02;;
33421;SDS011;19763;55.798;37.782;2023-01-20T06:48:55;41.08;;;24.30;;
33421;SDS011;19763;55.798;37.782;2023-01-20T06:51:24;41.08;;;25.00;;
33421;SDS011;19763;55.798;37.782;2023-01-20T06:53:51;39.60;;;24.33;;
33421;SDS011;19763;55.798;37.782;2023-01-20T06:56:17;41.22;;;23.95;;
33421;SDS011;19763;55.798;37.782;2023-01-20T06:58:42;37.85;;;23.98;;
33421;SDS011;19763;55.798;37.782;2023-01-20T07:01:13;39.90;;;23.55;;
33421;SDS011;19763;55.798;37.782;2023-01-20T07:03:47;42.70;;;24.48;;
33421;SDS011;19763;55.798;37.782;2023-01-20T07:08:44;38.88;;;24.10;;
33421;SDS011;19763;55.798;37.782;2023-01-20T07:11:10;36.75;;;23.65;;
33421;SDS011;19763;55.798;37.782;2023-01-20T07:13:36;39.83;;;23.67;;
33421;SDS011;19763;55.798;37.782;2023-01-20T07:16:01;41.97;;;24.33;;
33421;SDS011;19763;55.798;37.782;2023-01-20T07:18:27;44.97;;;24.20;;
33421;SDS011;19763;55.798;37.782;2023-01-20T07:20:56;42.65;;;24.85;;
33421;SDS011;19763;55.798;37.782;2023-01-20T07:23:22;41.20;;;24.48;;
33421;SDS011;19763;55.798;37.782;2023-01-20T07:26:01;40.95;;;25.02;;
33421;SDS011;19763;55.798;37.782;2023-01-20T07:28:38;42.33;;;24.92;;
33421;SDS011;19763;55.798;37.782;2023-01-20T07:31:09;39.05;;;23.27;;
33421;SDS011;19763;55.798;37.782;2023-01-20T07:33:36;41.13;;;24.05;;
33421;SDS011;19763;55.798;37.782;2023-01-20T07:36:02;42.72;;;24.15;;
33421;SDS011;19763;55.798;37.782;2023-01-20T07:38:28;42.20;;;23.83;;
33421;SDS011;19763;55.798;37.782;2023-01-20T07:40:57;40.05;;;24.13;;
33421;SDS011;19763;55.798;37.782;2023-01-20T07:43:24;44.20;;;25.00;;
33421;SDS011;19763;55.798;37.782;2023-01-20T07:45:57;43.35;;;23.92;;
33421;SDS011;19763;55.798;37.782;2023-01-20T07:48:28;40.05;;;24.52;;
33421;SDS011;19763;55.798;37.782;2023-01-20T07:50:55;41.10;;;24.52;;
33421;SDS011;19763;55.798;37.782;2023-01-20T07:53:29;45.28;;;25.38;;
33421;SDS011;19763;55.798;37.782;2023-01-20T07:56:05;44.35;;;25.42;;
33421;SDS011;19763;55.798;37.782;2023-01-20T07:58:33;39.85;;;23.42;;
33421;SDS011;19763;55.798;37.782;2023-01-20T08:01:06;39.97;;;24.90;;
33421;SDS011;19763;55.798;37.782;2023-01-20T08:03:33;42.97;;;24.40;;
33421;SDS011;19763;55.798;37.782;2023-01-20T08:06:08;42.60;;;25.08;;
33421;SDS011;19763;55.798;37.782;2023-01-20T08:08:35;40.13;;;24.02;;
33421;SDS011;19763;55.798;37.782;2023-01-20T08:11:01;40.28;;;24.75;;
33421;SDS011;19763;55.798;37.782;2023-01-20T08:13:28;41.42;;;23.67;;
33421;SDS011;19763;55.798;37.782;2023-01-20T08:15:54;40.28;;;24.15;;
33421;SDS011;19763;55.798;37.782;2023-01-20T08:18:23;42.35;;;24.35;;
33421;SDS011;19763;55.798;37.782;2023-01-20T08:20:48;39.72;;;24.85;;
33421;SDS011;19763;55.798;37.782;2023-01-20T08:23:14;44.88;;;23.55;;
33421;SDS011;19763;55.798;37.782;2023-01-20T08:25:40;40.83;;;24.05;;
33421;SDS011;19763;55.798;37.782;2023-01-20T08:28:05;36.65;;;22.30;;
33421;SDS011;19763;55.798;37.782;2023-01-20T08:30:31;43.63;;;25.38;;
33421;SDS011;19763;55.798;37.782;2023-01-20T08:32:56;40.03;;;24.67;;
33421;SDS011;19763;55.798;37.782;2023-01-20T08:35:22;39.05;;;23.33;;
33421;SDS011;19763;55.798;37.782;2023-01-20T08:37:47;38.38;;;21.85;;
33421;SDS011;19763;55.798;37.782;2023-01-20T08:40:13;46.13;;;24.70;;
33421;SDS011;19763;55.798;37.782;2023-01-20T08:42:39;41.47;;;24.02;;
33421;SDS011;19763;55.798;37.782;2023-01-20T08:45:05;39.08;;;24.75;;
33421;SDS011;19763;55.798;37.782;2023-01-20T08:47:35;41.90;;;24.60;;
33421;SDS011;19763;55.798;37.782;2023-01-20T08:50:03;41.93;;;23.47;;
33421;SDS011;19763;55.798;37.782;2023-01-20T08:52:30;38.83;;;24.35;;
33421;SDS011;19763;55.798;37.782;2023-01-20T08:54:56;39.58;;;22.55;;
33421;SDS011;19763;55.798;37.782;2023-01-20T08:57:25;44.45;;;24.70;;
33421;SDS011;19763;55.798;37.782;2023-01-20T08:59:51;38.88;;;23.50;;
33421;SDS011;19763;55.798;37.782;2023-01-20T09:02:18;40.28;;;23.45;;
33421;SDS011;19763;55.798;37.782;2023-01-20T09:04:43;40.67;;;24.15;;
33421;SDS011;19763;55.798;37.782;2023-01-20T09:07:10;42.92;;;24.27;;
33421;SDS011;19763;55.798;37.782;2023-01-20T09:09:36;38.85;;;22.33;;
33421;SDS011;19763;55.798;37.782;2023-01-20T09:12:03;39.80;;;23.52;;
33421;SDS011;19763;55.798;37.782;2023-01-20T09:14:30;37.58;;;23.83;;
33421;SDS011;19763;55.798;37.782;2023-01-20T09:16:56;38.55;;;21.50;;
33421;SDS011;19763;55.798;37.782;2023-01-20T09:19:21;42.45;;;24.17;;
33421;SDS011;19763;55.798;37.782;2023-01-20T09:21:47;37.80;;;22.75;;
33421;SDS011;19763;55.798;37.782;2023-01-20T09:24:13;39.80;;;22.92;;
33421;SDS011;19763;55.798;37.782;2023-01-20T09:26:39;38.85;;;23.55;;
33421;SDS011;19763;55.798;37.782;2023-01-20T09:29:06;41.53;;;24.27;;
33421;SDS011;19763;55.798;37.782;2023-01-20T09:31:40;40.70;;;23.92;;
33421;SDS011;19763;55.798;37.782;2023-01-20T09:34:10;38.83;;;22.95;;
33421;SDS011;19763;55.798;37.782;2023-01-20T09:36:40;39.53;;;24.15;;
33421;SDS011;19763;55.798;37.782;2023-01-20T09:39:05;39.17;;;23.33;;
33421;SDS011;19763;55.798;37.782;2023-01-20T09:41:50;33.28;;;22.30;;
33421;SDS011;19763;55.798;37.782;2023-01-20T09:44:40;39.42;;;23.90;;
33421;SDS011;19763;55.798;37.782;2023-01-20T09:47:30;37.22;;;22.52;;
33421;SDS011;19763;55.798;37.782;2023-01-20T09:55:58;34.95;;;21.58;;
33421;SDS011;19763;55.798;37.782;2023-01-20T10:01:14;41.47;;;23.17;;
33421;SDS011;19763;55.798;37.782;2023-01-20T10:04:00;37.35;;;22.42;;
33421;SDS011;19763;55.798;37.782;2023-01-20T10:06:32;36.42;;;21.77;;
33421;SDS011;19763;55.798;37.782;2023-01-20T10:11:53;38.47;;;23.10;;
33421;SDS011;19763;55.798;37.782;2023-01-20T10:14:28;35.85;;;21.60;;
33421;SDS011;19763;55.798;37.782;2023-01-20T10:17:03;43.92;;;24.27;;
33421;SDS011;19763;55.798;37.782;2023-01-20T10:19:47;36.45;;;23.63;;
33421;SDS011;19763;55.798;37.782;2023-01-20T10:22:26;40.05;;;23.30;;
33421;SDS011;19763;55.798;37.782;2023-01-20T10:25:19;43.72;;;22.88;;
33421;SDS011;19763;55.798;37.782;2023-01-20T10:27:49;42.30;;;23.08;;
33421;SDS011;19763;55.798;37.782;2023-01-20T10:30:19;38.22;;;22.50;;
33421;SDS011;19763;55.798;37.782;2023-01-20T10:35:25;38.50;;;22.25;;
33421;SDS011;19763;55.798;37.782;2023-01-20T10:37:52;36.35;;;23.05;;
33421;SDS011;19763;55.798;37.782;2023-01-20T10:43:03;40.42;;;22.35;;
33421;SDS011;19763;55.798;37.782;2023-01-20T10:45:45;35.53;;;22.30;;
33421;SDS011;19763;55.798;37.782;2023-01-20T10:51:11;34.90;;;21.85;;
33421;SDS011;19763;55.798;37.782;2023-01-20T10:59:08;34.85;;;22.50;;
33421;SDS011;19763;55.798;37.782;2023-01-20T11:01:42;34.95;;;21.08;;
33421;SDS011;19763;55.798;37.782;2023-01-20T11:04:19;35.90;;;21.10;;
33421;SDS011;19763;55.798;37.782;2023-01-20T11:06:54;37.88;;;21.60;;
33421;SDS011;19763;55.798;37.782;2023-01-20T11:09:31;36.80;;;21.25;;
33421;SDS011;19763;55.798;37.782;2023-01-20T11:12:00;35.28;;;20.90;;
33421;SDS011;19763;55.798;37.782;2023-01-20T11:14:28;36.78;;;20.60;;
33421;SDS011;19763;55.798;37.782;2023-01-20T11:17:04;37.38;;;20.90;;
33421;SDS011;19763;55.798;37.782;2023-01-20T11:19:54;34.58;;;20.45;;
33421;SDS011;19763;55.798;37.782;2023-01-20T11:22:29;34.42;;;20.33;;
33421;SDS011;19763;55.798;37.782;2023-01-20T11:25:00;32.88;;;19.60;;
33421;SDS011;19763;55.798;37.782;2023-01-20T11:27:36;38.90;;;21.05;;
33421;SDS011;19763;55.798;37.782;2023-01-20T11:30:07;37.35;;;20.55;;
33421;SDS011;19763;55.798;37.782;2023-01-20T11:33:05;34.78;;;20.38;;
33421;SDS011;19763;55.798;37.782;2023-01-20T11:35:55;33.30;;;20.95;;
33421;SDS011;19763;55.798;37.782;2023-01-20T11:38:26;37.53;;;20.13;;
33421;SDS011;19763;55.798;37.782;2023-01-20T11:40:54;31.90;;;18.95;;
33421;SDS011;19763;55.798;37.782;2023-01-20T11:43:28;34.13;;;19.67;;
33421;SDS011;19763;55.798;37.782;2023-01-20T11:46:08;36.85;;;20.90;;
33421;SDS011;19763;55.798;37.782;2023-01-20T11:48:35;34.97;;;19.95;;
33421;SDS011;19763;55.798;37.782;2023-01-20T11:51:01;32.33;;;20.30;;
33421;SDS011;19763;55.798;37.782;2023-01-20T11:53:27;32.90;;;20.58;;
33421;SDS011;19763;55.798;37.782;2023-01-20T11:56:02;32.75;;;20.60;;
33421;SDS011;19763;55.798;37.782;2023-01-20T12:01:19;32.20;;;19.17;;
33421;SDS011;19763;55.798;37.782;2023-01-20T12:06:22;27.20;;;18.60;;
33421;SDS011;19763;55.798;37.782;2023-01-20T12:09:03;30.40;;;19.33;;
33421;SDS011;19763;55.798;37.782;2023-01-20T12:14:31;33.72;;;20.27;;
33421;SDS011;19763;55.798;37.782;2023-01-20T12:19:55;35.53;;;19.63;;
33421;SDS011;19763;55.798;37.782;2023-01-20T12:26:08;32.42;;;19.48;;
33421;SDS011;19763;55.798;37.782;2023-01-20T12:28:33;34.58;;;19.50;;
33421;SDS011;19763;55.798;37.782;2023-01-20T12:31:05;32.17;;;18.92;;
33421;SDS011;19763;55.798;37.782;2023-01-20T12:33:37;33.17;;;18.75;;
33421;SDS011;19763;55.798;37.782;2023-01-20T12:44:44;28.35;;;17.40;;
33421;SDS011;19763;55.798;37.782;2023-01-20T12:53:14;34.08;;;19.05;;
33421;SDS011;19763;55.798;37.782;2023-01-20T12:59:19;29.10;;;16.65;;
33421;SDS011;19763;55.798;37.782;2023-01-20T13:01:52;26.17;;;17.02;;
33421;SDS011;19763;55.798;37.782;2023-01-20T13:07:17;28.48;;;16.23;;
33421;SDS011;19763;55.798;37.782;2023-01-20T13:15:18;23.38;;;16.17;;
33421;SDS011;19763;55.798;37.782;2023-01-20T13:20:58;29.73;;;18.45;;
33421;SDS011;19763;55.798;37.782;2023-01-20T13:23:25;28.20;;;17.73;;
33421;SDS011;19763;55.798;37.782;2023-01-20T13:25:53;29.73;;;17.85;;
33421;SDS011;19763;55.798;37.782;2023-01-20T13:28:20;34.10;;;17.00;;
33421;SDS011;19763;55.798;37.782;2023-01-20T13:30:49;25.63;;;16.50;;
33421;SDS011;19763;55.798;37.782;2023-01-20T13:36:16;27.83;;;16.90;;
33421;SDS011;19763;55.798;37.782;2023-01-20T13:38:44;29.73;;;17.83;;
33421;SDS011;19763;55.798;37.782;2023-01-20T13:41:11;27.35;;;17.55;;
33421;SDS011;19763;55.798;37.782;2023-01-20T13:43:56;28.00;;;16.38;;
33421;SDS011;19763;55.798;37.782;2023-01-20T13:49:11;25.95;;;16.02;;
33421;SDS011;19763;55.798;37.782;2023-01-20T13:51:47;26.70;;;15.45;;
33421;SDS011;19763;55.798;37.782;2023-01-20T13:56:49;26.63;;;16.58;;
33421;SDS011;19763;55.798;37.782;2023-01-20T13:59:15;27.50;;;16.13;;
33421;SDS011;19763;55.798;37.782;2023-01-20T14:01:41;26.48;;;16.25;;
33421;SDS011;19763;55.798;37.782;2023-01-20T14:04:14;24.73;;;16.52;;
33421;SDS011;19763;55.798;37.782;2023-01-20T14:06:58;25.52;;;14.50;;
33421;SDS011;19763;55.798;37.782;2023-01-20T14:09:24;27.25;;;16.10;;
33421;SDS011;19763;55.798;37.782;2023-01-20T14:11:52;30.27;;;16.20;;
33421;SDS011;19763;55.798;37.782;2023-01-20T14:14:20;28.42;;;15.52;;
33421;SDS011;19763;55.798;37.782;2023-01-20T14:16:48;30.33;;;16.00;;
33421;SDS011;19763;55.798;37.782;2023-01-20T14:19:17;27.05;;;16.75;;
33421;SDS011;19763;55.798;37.782;2023-01-20T14:21:49;26.13;;;15.52;;
33421;SDS011;19763;55.798;37.782;2023-01-20T14:24:24;25.15;;;16.20;;
33421;SDS011;19763;55.798;37.782;2023-01-20T14:27:06;30.58;;;15.55;;
33421;SDS011;19763;55.798;37.782;2023-01-20T14:29:38;28.42;;;16.13;;
33421;SDS011;19763;55.798;37.782;2023-01-20T14:32:16;26.70;;;16.45;;
33421;SDS011;19763;55.798;37.782;2023-01-20T14:34:56;28.20;;;15.27;;
33421;SDS011;19763;55.798;37.782;2023-01-20T14:39:51;27.95;;;16.13;;
33421;SDS011;19763;55.798;37.782;2023-01-20T14:42:20;24.90;;;16.13;;
33421;SDS011;19763;55.798;37.782;2023-01-20T14:44:47;24.58;;;16.08;;
33421;SDS011;19763;55.798;37.782;2023-01-20T14:47:14;24.60;;;15.55;;
33421;SDS011;19763;55.798;37.782;2023-01-20T14:49:40;25.27;;;16.15;;
33421;SDS011;19763;55.798;37.782;2023-01-20T14:52:09;24.92;;;14.13;;
33421;SDS011;19763;55.798;37.782;2023-01-20T14:54:42;23.75;;;14.82;;
33421;SDS011;19763;55.798;37.782;2023-01-20T15:02:36;26.90;;;15.52;;
33421;SDS011;19763;55.798;37.782;2023-01-20T15:05:19;23.88;;;15.70;;
33421;SDS011;19763;55.798;37.782;2023-01-20T15:07:46;26.20;;;15.30;;
33421;SDS011;19763;55.798;37.782;2023-01-20T15:10:15;33.42;;;16.48;;
33421;SDS011;19763;55.798;37.782;2023-01-20T15:15:11;24.73;;;14.82;;
33421;SDS011;19763;55.798;37.782;2023-01-20T15:17:41;24.40;;;15.73;;
33421;SDS011;19763;55.798;37.782;2023-01-20T15:20:43;28.33;;;16.05;;
33421;SDS011;19763;55.798;37.782;2023-01-20T15:25:51;24.90;;;14.55;;
33421;SDS011;19763;55.798;37.782;2023-01-20T15:28:26;27.20;;;15.75;;
33421;SDS011;19763;55.798;37.782;2023-01-20T15:30:54;25.60;;;15.45;;
33421;SDS011;19763;55.798;37.782;2023-01-20T15:33:22;26.73;;;16.35;;
33421;SDS011;19763;55.798;37.782;2023-01-20T15:35:58;22.90;;;15.90;;
33421;SDS011;19763;55.798;37.782;2023-01-20T15:38:26;24.77;;;15.18;;
33421;SDS011;19763;55.798;37.782;2023-01-20T15:40:54;27.80;;;16.10;;
33421;SDS011;19763;55.798;37.782;2023-01-20T15:43:20;29.08;;;16.65;;
33421;SDS011;19763;55.798;37.782;2023-01-20T15:45:45;30.23;;;16.65;;
33421;SDS011;19763;55.798;37.782;2023-01-20T15:48:16;24.60;;;15.60;;
33421;SDS011;19763;55.798;37.782;2023-01-20T15:53:09;23.23;;;15.02;;
33421;SDS011;19763;55.798;37.782;2023-01-20T15:55:36;23.67;;;15.45;;
33421;SDS011;19763;55.798;37.782;2023-01-20T15:58:14;28.23;;;15.73;;
33421;SDS011;19763;55.798;37.782;2023-01-20T16:00:46;26.83;;;15.43;;
33421;SDS011;19763;55.798;37.782;2023-01-20T16:03:11;23.42;;;15.48;;
33421;SDS011;19763;55.798;37.782;2023-01-20T16:05:37;26.58;;;15.32;;
33421;SDS011;19763;55.798;37.782;2023-01-20T16:08:08;24.92;;;15.70;;
33421;SDS011;19763;55.798;37.782;2023-01-20T16:10:38;23.70;;;14.77;;
33421;SDS011;19763;55.798;37.782;2023-01-20T16:13:04;30.65;;;15.77;;
33421;SDS011;19763;55.798;37.782;2023-01-20T16:15:30;26.67;;;15.80;;
33421;SDS011;19763;55.798;37.782;2023-01-20T16:17:55;30.77;;;16.92;;
33421;SDS011;19763;55.798;37.782;2023-01-20T16:20:22;24.30;;;15.70;;
33421;SDS011;19763;55.798;37.782;2023-01-20T16:22:49;27.58;;;15.52;;
33421;SDS011;19763;55.798;37.782;2023-01-20T16:25:15;25.98;;;15.63;;
33421;SDS011;19763;55.798;37.782;2023-01-20T16:27:41;25.00;;;15.05;;
33421;SDS011;19763;55.798;37.782;2023-01-20T16:30:09;29.15;;;16.95;;
33421;SDS011;19763;55.798;37.782;2023-01-20T16:32:38;28.05;;;16.90;;